createdAt,value
2022-12-03T00:11:01.377Z,3.29
2022-12-03T00:13:28.301Z,3.28
2022-12-03T00:15:55.183Z,3.27
2022-12-03T00:18:22.078Z,3.29
2022-12-03T00:20:49.029Z,3.27
2022-12-03T00:23:15.890Z,3.26
2022-12-03T00:25:45.310Z,3.25
2022-12-03T00:28:15.182Z,3.26
2022-12-03T00:44:13.733Z,3.36
2022-12-03T00:52:02.154Z,3.36
2022-12-03T00:54:32.091Z,3.36
2022-12-03T00:56:59.511Z,3.30
2022-12-03T00:59:29.639Z,3.27
2022-12-03T01:01:57.132Z,3.25
2022-12-03T01:04:24.121Z,3.25
2022-12-03T01:06:50.942Z,3.20
2022-12-03T01:09:17.650Z,3.24
2022-12-03T01:11:44.291Z,3.18
2022-12-03T01:14:20.168Z,3.21
2022-12-03T01:16:49.985Z,3.18
2022-12-03T01:19:18.403Z,3.17
2022-12-03T01:21:50.792Z,3.14
2022-12-03T01:24:19.894Z,3.14
2022-12-03T01:26:47.702Z,3.12
2022-12-03T01:29:14.922Z,3.17
2022-12-03T01:32:00.677Z,3.17
2022-12-03T01:34:27.956Z,3.18
2022-12-03T01:36:55.281Z,3.10
2022-12-03T01:39:22.526Z,3.16
2022-12-03T01:41:53.122Z,3.13
2022-12-03T01:44:28.300Z,3.11
2022-12-03T01:47:00.778Z,3.15
2022-12-03T01:49:56.227Z,3.16
2022-12-03T01:52:31.252Z,3.16
2022-12-03T01:55:04.275Z,3.10
2022-12-03T01:57:47.165Z,3.12
2022-12-03T02:00:26.863Z,3.17
2022-12-03T02:03:21.101Z,3.16
2022-12-03T02:05:48.089Z,3.16
2022-12-03T02:08:34.526Z,3.16
2022-12-03T02:11:42.087Z,3.12
2022-12-03T02:14:21.868Z,3.14
2022-12-03T02:16:48.994Z,3.13
2022-12-03T02:19:27.819Z,3.14
2022-12-03T02:22:26.204Z,3.15
2022-12-03T02:25:03.744Z,3.13
2022-12-03T02:27:30.421Z,3.12
2022-12-03T02:29:57.332Z,3.07
2022-12-03T02:32:24.173Z,3.07
2022-12-03T02:34:52.068Z,3.04
2022-12-03T02:37:32.660Z,3.02
2022-12-03T02:40:11.725Z,2.97
2022-12-03T02:42:39.679Z,3.01
2022-12-03T02:45:28.717Z,2.99
2022-12-03T02:48:18.254Z,3.01
2022-12-03T02:50:55.478Z,2.95
2022-12-03T02:53:36.439Z,2.91
2022-12-03T02:56:05.557Z,2.90
2022-12-03T02:58:37.429Z,2.90
2022-12-03T03:01:05.536Z,2.89
2022-12-03T03:03:37.406Z,2.88
2022-12-03T03:06:10.899Z,2.88
2022-12-03T03:08:40.250Z,2.85
2022-12-03T03:11:07.035Z,2.85
2022-12-03T03:13:39.168Z,2.80
2022-12-03T03:16:10.846Z,2.80
2022-12-03T03:18:38.015Z,2.83
2022-12-03T03:21:06.225Z,2.75
2022-12-03T03:23:38.019Z,2.78
2022-12-03T03:26:08.876Z,2.77
2022-12-03T03:28:42.632Z,2.69
2022-12-03T03:31:19.439Z,2.76
2022-12-03T03:33:51.745Z,2.70
2022-12-03T03:36:20.135Z,2.71
2022-12-03T03:38:50.651Z,2.69
2022-12-03T03:41:21.993Z,2.68
2022-12-03T03:43:50.494Z,2.71
2022-12-03T03:46:21.839Z,2.67
2022-12-03T03:48:51.817Z,2.68
2022-12-03T03:51:20.408Z,2.67
2022-12-03T03:53:52.113Z,2.69
2022-12-03T03:56:22.111Z,2.65
2022-12-03T03:58:49.298Z,2.63
2022-12-03T04:01:18.568Z,2.60
2022-12-03T04:03:46.114Z,2.65
2022-12-03T04:06:12.971Z,2.59
2022-12-03T04:08:39.584Z,2.63
2022-12-03T04:11:25.255Z,2.59
2022-12-03T04:13:52.066Z,2.59
2022-12-03T04:16:21.679Z,2.56
2022-12-03T04:18:48.480Z,2.56
2022-12-03T04:21:39.757Z,2.54
2022-12-03T04:24:10.412Z,2.55
2022-12-03T04:26:56.089Z,2.53
2022-12-03T04:29:22.933Z,2.51
2022-12-03T04:32:08.551Z,2.52
2022-12-03T04:34:57.185Z,2.50
2022-12-03T04:37:23.904Z,2.49
2022-12-03T04:39:50.746Z,2.44
2022-12-03T04:42:17.508Z,2.39
2022-12-03T04:44:44.490Z,2.39
2022-12-03T04:47:21.614Z,2.34
2022-12-03T04:49:51.766Z,2.40
2022-12-03T04:52:21.114Z,2.38
2022-12-03T04:54:48.206Z,2.37
2022-12-03T04:57:15.064Z,2.36
2022-12-03T04:59:41.797Z,2.33
2022-12-03T05:02:09.036Z,2.23
2022-12-03T05:04:38.986Z,2.20
2022-12-03T05:07:05.719Z,2.16
2022-12-03T05:09:34.524Z,2.11
2022-12-03T05:12:01.349Z,2.01
2022-12-03T05:14:28.133Z,2.03
2022-12-03T05:16:54.987Z,1.99
2022-12-03T05:19:41.779Z,1.96
2022-12-03T05:22:08.470Z,1.95
2022-12-03T05:24:35.178Z,1.90
2022-12-03T05:27:10.856Z,1.79
2022-12-03T05:32:21.936Z,1.73
2022-12-03T05:34:48.708Z,1.63
2022-12-03T05:37:15.711Z,1.64
2022-12-03T05:56:18.912Z,1.54
2022-12-03T05:58:48.841Z,1.47
2022-12-03T06:03:57.056Z,1.43
2022-12-03T06:41:23.925Z,1.49
2022-12-03T06:43:50.830Z,1.48
2022-12-03T06:46:17.736Z,1.44
2022-12-03T06:59:36.838Z,1.43
2022-12-03T09:11:24.043Z,1.35
2022-12-03T09:19:16.910Z,1.51
2022-12-03T09:24:25.410Z,1.59
2022-12-03T09:29:33.084Z,1.60
2022-12-03T10:21:38.972Z,1.97
2022-12-03T10:24:28.653Z,2.01
2022-12-03T10:27:19.645Z,2.03
2022-12-03T10:30:02.193Z,2.05
2022-12-03T10:32:51.646Z,2.03
2022-12-03T10:35:36.735Z,2.04
2022-12-03T10:41:00.149Z,2.06
2022-12-03T10:43:26.905Z,2.06
2022-12-03T10:46:03.759Z,2.08
2022-12-03T10:48:31.419Z,2.08
2022-12-03T10:51:27.511Z,2.12
2022-12-03T10:53:54.326Z,2.13
2022-12-03T10:56:27.420Z,2.15
2022-12-03T10:58:55.499Z,2.16
2022-12-03T11:01:26.436Z,2.20
2022-12-03T11:04:02.899Z,2.17
2022-12-03T11:06:34.861Z,2.17
2022-12-03T11:09:08.779Z,2.18
2022-12-03T11:11:36.442Z,2.16
2022-12-03T11:14:07.787Z,2.16
2022-12-03T11:16:42.700Z,2.18
2022-12-03T11:19:44.840Z,2.18
2022-12-03T11:22:11.883Z,2.14
2022-12-03T11:24:41.473Z,2.10
2022-12-03T11:27:20.637Z,2.03
2022-12-03T11:30:06.352Z,2.02
2022-12-03T11:32:40.319Z,2.05
2022-12-03T11:35:57.640Z,2.03
2022-12-03T11:38:53.599Z,1.98
2022-12-03T11:41:35.035Z,1.97
2022-12-03T11:55:37.928Z,1.84
2022-12-03T12:04:43.164Z,1.80
2022-12-03T12:36:16.802Z,1.02
2022-12-03T12:55:04.698Z,0.99
2022-12-03T12:57:34.201Z,1.03
2022-12-03T13:00:05.476Z,1.12
2022-12-03T13:40:10.390Z,1.15
2022-12-03T13:54:31.263Z,1.02
2022-12-03T14:40:21.664Z,1.00
2022-12-03T16:41:22.981Z,1.23
2022-12-03T16:43:49.595Z,1.24
2022-12-03T17:10:30.681Z,1.35
2022-12-03T18:30:52.960Z,1.15
2022-12-03T18:33:22.701Z,1.12
2022-12-03T19:03:07.576Z,1.04
2022-12-03T19:48:52.614Z,0.70
2022-12-03T19:51:38.508Z,0.65
2022-12-03T20:12:55.342Z,0.38
2022-12-03T20:50:36.645Z,-0.10
2022-12-03T20:53:23.820Z,-0.14
2022-12-03T20:56:00.747Z,-0.21
2022-12-03T20:58:29.389Z,-0.25
2022-12-03T21:00:56.695Z,-0.25
2022-12-03T21:03:23.468Z,-0.27
2022-12-03T21:05:51.411Z,-0.32
2022-12-03T21:08:33.987Z,-0.33
2022-12-03T21:11:15.821Z,-0.34
2022-12-03T21:13:44.066Z,-0.39
2022-12-03T21:16:39.395Z,-0.41
2022-12-03T21:19:08.859Z,-0.40
2022-12-03T21:21:36.367Z,-0.48
2022-12-03T21:24:03.333Z,-0.48
2022-12-03T21:26:30.030Z,-0.52
2022-12-03T21:28:56.637Z,-0.54
2022-12-03T21:31:34.228Z,-0.52
2022-12-03T21:34:02.039Z,-0.57
2022-12-03T21:36:34.293Z,-0.57
2022-12-03T21:39:00.933Z,-0.63
2022-12-03T21:41:27.660Z,-0.58
2022-12-03T21:43:54.314Z,-0.64
2022-12-03T21:47:09.748Z,-0.64
2022-12-03T21:49:07.870Z,-0.63
2022-12-03T21:51:34.751Z,-0.63
2022-12-03T21:54:01.558Z,-0.65
2022-12-03T21:56:36.732Z,-0.71
2022-12-03T21:59:04.304Z,-0.70
2022-12-03T22:01:30.987Z,-0.67
2022-12-03T22:03:57.612Z,-0.70
2022-12-03T22:06:24.446Z,-0.69
2022-12-03T22:08:51.264Z,-0.70
2022-12-03T22:11:23.628Z,-0.70
2022-12-03T22:13:54.432Z,-0.72
2022-12-03T22:16:22.387Z,-0.73
2022-12-03T22:18:49.821Z,-0.77
2022-12-03T22:21:20.359Z,-0.75
2022-12-03T22:23:49.837Z,-0.78
2022-12-03T22:26:18.933Z,-0.74
2022-12-03T22:28:50.450Z,-0.76
2022-12-03T22:31:18.705Z,-0.76
2022-12-03T22:33:49.609Z,-0.77
2022-12-03T22:36:21.357Z,-0.78
2022-12-03T22:38:51.001Z,-0.75
2022-12-03T22:41:19.439Z,-0.78
2022-12-03T22:43:48.691Z,-0.77
2022-12-03T22:46:17.604Z,-0.78
2022-12-03T22:48:49.498Z,-0.75
2022-12-03T22:51:26.778Z,-0.77
2022-12-03T22:54:00.026Z,-0.75
2022-12-03T22:56:29.683Z,-0.78
2022-12-03T22:58:57.157Z,-0.79
2022-12-03T23:01:37.556Z,-0.80
2022-12-03T23:04:07.369Z,-0.78
2022-12-03T23:06:36.798Z,-0.79
2022-12-03T23:09:06.905Z,-0.82
2022-12-03T23:11:38.377Z,-0.80
2022-12-03T23:14:05.089Z,-0.78
2022-12-03T23:16:34.137Z,-0.78
2022-12-03T23:19:05.551Z,-0.84
2022-12-03T23:21:35.568Z,-0.79
2022-12-03T23:24:09.312Z,-0.81
2022-12-03T23:26:41.738Z,-0.86
2022-12-03T23:29:08.762Z,-0.82
2022-12-03T23:31:36.217Z,-0.82
2022-12-03T23:34:04.006Z,-0.87
2022-12-03T23:36:33.907Z,-0.84
2022-12-03T23:39:01.010Z,-0.84
2022-12-03T23:41:28.388Z,-0.82
2022-12-03T23:43:56.335Z,-0.86
2022-12-03T23:46:27.414Z,-0.84
2022-12-03T23:48:54.957Z,-0.82
2022-12-03T23:51:24.530Z,-0.82
2022-12-03T23:53:54.202Z,-0.84
2022-12-03T23:56:29.548Z,-0.87
2022-12-03T23:58:59.479Z,-0.82
